createdAt,value
2023-05-10T00:01:00.595Z,100018.69
2023-05-10T00:03:27.236Z,100019.78
2023-05-10T00:05:54.075Z,100019.66
2023-05-10T00:08:20.736Z,100023.13
2023-05-10T00:10:47.418Z,100015.28
2023-05-10T00:13:14.318Z,100018.69
2023-05-10T00:15:41.120Z,100016.03
2023-05-10T00:18:08.061Z,100021.38
2023-05-10T00:20:34.708Z,100017.16
2023-05-10T00:23:01.534Z,100020.69
2023-05-10T00:25:28.129Z,100018.06
2023-05-10T00:27:56.350Z,100018.06
2023-05-10T00:30:23.020Z,100018.06
2023-05-10T00:32:50.874Z,100018.97
2023-05-10T00:35:17.705Z,100020.78
2023-05-10T00:37:44.380Z,100018.13
2023-05-10T00:40:12.234Z,100009.25
2023-05-10T00:42:40.391Z,100012.09
2023-05-10T00:45:08.220Z,100012.94
2023-05-10T00:47:35.991Z,100009.41
2023-05-10T00:50:03.461Z,100008.47
2023-05-10T00:52:31.016Z,100012.00
2023-05-10T00:54:59.456Z,100006.78
2023-05-10T00:57:26.213Z,100007.56
2023-05-10T00:59:52.984Z,100002.31
2023-05-10T01:02:20.026Z,100008.28
2023-05-10T01:04:47.325Z,100004.00
2023-05-10T01:07:14.049Z,100004.09
2023-05-10T01:09:40.776Z,100008.50
2023-05-10T01:12:08.292Z,100002.38
2023-05-10T01:14:37.266Z,99998.88
2023-05-10T01:17:07.086Z,100007.72
2023-05-10T01:19:36.065Z,99997.22
2023-05-10T01:22:08.815Z,99999.94
2023-05-10T01:25:27.822Z,100007.03
2023-05-10T01:28:06.458Z,100010.69
2023-05-10T01:31:09.425Z,100007.94
2023-05-10T01:33:51.303Z,100008.88
2023-05-10T01:36:31.735Z,100005.56
2023-05-10T01:39:25.584Z,100014.28
2023-05-10T01:42:04.121Z,100014.63
2023-05-10T01:44:43.675Z,100010.28
2023-05-10T01:47:11.850Z,100019.78
2023-05-10T01:49:55.428Z,100013.75
2023-05-10T01:52:33.759Z,100018.09
2023-05-10T01:55:07.293Z,100024.03
2023-05-10T01:57:38.231Z,100020.69
2023-05-10T02:00:05.945Z,100011.09
2023-05-10T02:02:43.360Z,100016.56
2023-05-10T02:05:13.776Z,100018.28
2023-05-10T02:07:41.434Z,100012.84
2023-05-10T02:10:10.222Z,100020.03
2023-05-10T02:12:40.343Z,100015.66
2023-05-10T02:15:08.884Z,100018.41
2023-05-10T02:17:38.151Z,100020.06
2023-05-10T02:20:08.163Z,100020.00
2023-05-10T02:22:36.617Z,100019.38
2023-05-10T02:25:05.067Z,100023.63
2023-05-10T02:27:32.406Z,100020.16
2023-05-10T02:29:59.635Z,100026.41
2023-05-10T02:32:28.300Z,100031.63
2023-05-10T02:34:56.520Z,100029.00
2023-05-10T02:37:23.615Z,100020.34
2023-05-10T02:39:51.764Z,100028.13
2023-05-10T02:42:23.202Z,100030.94
2023-05-10T02:44:53.830Z,100034.31
2023-05-10T02:47:20.886Z,100029.28
2023-05-10T02:49:49.042Z,100021.25
2023-05-10T02:52:24.268Z,100022.09
2023-05-10T02:54:55.801Z,100016.00
2023-05-10T02:57:34.687Z,100029.22
2023-05-10T03:00:04.213Z,100030.91
2023-05-10T03:02:32.029Z,100029.34
2023-05-10T03:04:59.661Z,100022.22
2023-05-10T03:07:26.704Z,100023.97
2023-05-10T03:09:53.594Z,100025.97
2023-05-10T03:12:32.327Z,100037.28
2023-05-10T03:15:08.647Z,100035.53
2023-05-10T03:17:55.340Z,100044.41
2023-05-10T03:20:30.185Z,100049.56
2023-05-10T03:23:03.652Z,100046.88
2023-05-10T03:25:32.071Z,100049.59
2023-05-10T03:28:01.005Z,100056.03
2023-05-10T03:30:28.645Z,100053.44
2023-05-10T03:32:55.290Z,100054.19
2023-05-10T03:35:21.975Z,100063.00
2023-05-10T03:37:49.972Z,100068.41
2023-05-10T03:40:18.984Z,100067.66
2023-05-10T03:42:45.777Z,100066.72
2023-05-10T03:45:12.457Z,100068.34
2023-05-10T03:47:39.147Z,100067.44
2023-05-10T03:50:06.641Z,100079.59
2023-05-10T03:52:34.257Z,100081.34
2023-05-10T03:55:00.866Z,100076.28
2023-05-10T03:57:27.443Z,100073.53
2023-05-10T03:59:54.036Z,100083.19
2023-05-10T04:02:20.838Z,100090.97
2023-05-10T04:04:47.591Z,100083.16
2023-05-10T04:07:14.168Z,100089.22
2023-05-10T04:09:41.068Z,100091.78
2023-05-10T04:12:10.129Z,100087.44
2023-05-10T04:14:38.196Z,100089.22
2023-05-10T04:17:04.878Z,100092.69
2023-05-10T04:19:31.864Z,100102.97
2023-05-10T04:21:58.968Z,100112.72
2023-05-10T04:24:26.070Z,100112.72
2023-05-10T04:26:52.679Z,100110.88
2023-05-10T04:29:19.349Z,100105.72
2023-05-10T04:31:45.978Z,100112.78
2023-05-10T04:34:12.702Z,100116.19
2023-05-10T04:36:39.335Z,100112.59
2023-05-10T04:39:05.857Z,100115.31
2023-05-10T04:41:32.550Z,100117.94
2023-05-10T04:43:59.240Z,100116.16
2023-05-10T04:46:25.899Z,100116.16
2023-05-10T04:48:55.547Z,100126.63
2023-05-10T04:51:27.205Z,100124.00
2023-05-10T04:54:05.090Z,100135.34
2023-05-10T04:56:32.419Z,100133.59
2023-05-10T04:58:59.035Z,100130.91
2023-05-10T05:01:25.647Z,100142.31
2023-05-10T05:03:53.971Z,100141.44
2023-05-10T05:06:22.241Z,100148.31
2023-05-10T05:08:50.528Z,100155.38
2023-05-10T05:11:18.372Z,100150.91
2023-05-10T05:13:44.989Z,100166.69
2023-05-10T05:16:12.447Z,100155.44
2023-05-10T05:18:39.404Z,100166.66
2023-05-10T05:21:20.482Z,100167.56
2023-05-10T05:23:47.372Z,100166.78
2023-05-10T05:26:14.034Z,100166.69
2023-05-10T05:28:40.710Z,100167.59
2023-05-10T05:31:11.266Z,100177.19
2023-05-10T05:33:38.347Z,100175.38
2023-05-10T05:36:06.383Z,100180.63
2023-05-10T05:38:39.881Z,100183.22
2023-05-10T05:41:06.464Z,100180.59
2023-05-10T05:43:43.189Z,100185.75
2023-05-10T05:46:09.941Z,100189.16
2023-05-10T05:48:36.570Z,100195.34
2023-05-10T05:51:05.788Z,100196.19
2023-05-10T05:53:33.663Z,100197.84
2023-05-10T05:56:00.327Z,100203.03
2023-05-10T05:58:29.004Z,100199.56
2023-05-10T06:00:55.597Z,100190.81
2023-05-10T06:03:22.604Z,100196.03
2023-05-10T06:05:49.431Z,100202.22
2023-05-10T06:08:16.137Z,100198.81
2023-05-10T06:10:42.748Z,100203.97
2023-05-10T06:13:09.602Z,100207.53
2023-05-10T06:15:36.295Z,100215.28
2023-05-10T06:18:03.056Z,100224.84
2023-05-10T06:20:29.878Z,100215.19
2023-05-10T06:23:02.403Z,100223.97
2023-05-10T06:25:29.030Z,100227.34
2023-05-10T06:28:00.074Z,100223.94
2023-05-10T06:30:32.622Z,100228.19
2023-05-10T06:32:59.292Z,100227.25
2023-05-10T06:35:25.996Z,100237.69
2023-05-10T06:37:53.051Z,100240.31
2023-05-10T06:40:19.930Z,100245.47
2023-05-10T06:42:47.378Z,100238.50
2023-05-10T06:45:18.988Z,100244.69
2023-05-10T06:47:45.847Z,100243.00
2023-05-10T06:50:12.730Z,100242.13
2023-05-10T06:52:39.547Z,100247.28
2023-05-10T06:55:09.353Z,100240.25
2023-05-10T06:57:36.365Z,100248.16
2023-05-10T07:00:10.789Z,100250.84
2023-05-10T07:02:37.642Z,100254.31
2023-05-10T07:05:04.539Z,100256.88
2023-05-10T07:07:31.386Z,100248.16
2023-05-10T07:09:58.701Z,100260.41
2023-05-10T07:12:25.869Z,100260.34
2023-05-10T07:14:52.652Z,100259.31
2023-05-10T07:17:19.403Z,100275.09
2023-05-10T07:19:46.143Z,100257.50
2023-05-10T07:22:12.730Z,100262.69
2023-05-10T07:24:39.366Z,100264.31
2023-05-10T07:27:06.007Z,100270.25
2023-05-10T07:29:32.622Z,100264.09
2023-05-10T07:31:59.341Z,100261.47
2023-05-10T07:34:26.411Z,100273.41
2023-05-10T07:36:53.739Z,100269.00
2023-05-10T07:39:27.290Z,100276.69
2023-05-10T07:41:55.771Z,100271.59
2023-05-10T07:44:22.416Z,100270.81
2023-05-10T07:46:49.584Z,100280.19
2023-05-10T07:49:17.239Z,100275.72
2023-05-10T07:51:44.068Z,100273.94
2023-05-10T07:54:10.809Z,100267.34
2023-05-10T07:56:37.573Z,100274.94
2023-05-10T07:59:06.081Z,100269.66
2023-05-10T08:01:34.689Z,100272.44
2023-05-10T08:04:02.954Z,100262.25
2023-05-10T08:06:30.840Z,100268.22
2023-05-10T08:08:57.611Z,100274.41
2023-05-10T08:11:24.416Z,100282.28
2023-05-10T08:13:51.897Z,100279.56
2023-05-10T08:16:18.987Z,100285.19
2023-05-10T08:18:47.875Z,100292.06
2023-05-10T08:21:27.559Z,100292.13
2023-05-10T08:23:54.081Z,100305.56
2023-05-10T08:26:21.930Z,100302.03
2023-05-10T08:28:48.547Z,100300.97
2023-05-10T08:31:15.722Z,100298.28
2023-05-10T08:33:44.293Z,100302.81
2023-05-10T08:36:11.451Z,100306.25
2023-05-10T08:38:38.989Z,100298.91
2023-05-10T08:41:06.305Z,100296.16
2023-05-10T08:43:33.330Z,100302.00
2023-05-10T08:46:05.100Z,100308.88
2023-05-10T08:48:34.358Z,100309.59
2023-05-10T08:51:01.854Z,100312.03
2023-05-10T08:53:31.964Z,100308.91
2023-05-10T08:56:02.867Z,100308.59
2023-05-10T08:58:29.530Z,100311.19
2023-05-10T09:00:56.991Z,100323.25
2023-05-10T09:03:23.684Z,100329.25
2023-05-10T09:05:50.602Z,100319.97
2023-05-10T09:08:18.357Z,100325.16
2023-05-10T09:10:48.119Z,100329.41
2023-05-10T09:13:18.729Z,100320.63
2023-05-10T09:15:46.153Z,100326.72
2023-05-10T09:18:13.635Z,100331.53
2023-05-10T09:20:40.523Z,100329.41
2023-05-10T09:23:07.654Z,100331.75
2023-05-10T09:25:34.674Z,100328.16
2023-05-10T09:28:01.277Z,100335.44
2023-05-10T09:30:35.699Z,100331.31
2023-05-10T09:33:07.318Z,100332.19
2023-05-10T09:35:34.667Z,100338.78
2023-05-10T09:38:05.875Z,100332.47
2023-05-10T09:40:32.969Z,100331.94
2023-05-10T09:43:02.414Z,100338.22
2023-05-10T09:45:35.038Z,100342.03
2023-05-10T09:48:04.129Z,100335.78
2023-05-10T09:50:31.481Z,100341.03
2023-05-10T09:53:00.813Z,100342.94
2023-05-10T09:55:39.284Z,100349.50
2023-05-10T09:58:14.854Z,100346.00
2023-05-10T10:00:46.370Z,100340.19
2023-05-10T10:03:15.599Z,100344.81
2023-05-10T10:05:50.723Z,100341.00
2023-05-10T10:08:26.082Z,100342.06
2023-05-10T10:10:52.808Z,100342.75
2023-05-10T10:13:22.136Z,100344.13
2023-05-10T10:15:52.239Z,100347.06
2023-05-10T10:18:28.015Z,100340.97
2023-05-10T10:20:56.920Z,100334.28
2023-05-10T10:23:24.556Z,100333.50
2023-05-10T10:25:52.876Z,100345.06
2023-05-10T10:28:34.209Z,100342.59
2023-05-10T10:31:13.503Z,100348.97
2023-05-10T10:33:48.614Z,100342.69
2023-05-10T10:36:16.538Z,100339.88
2023-05-10T10:38:49.182Z,100338.66
2023-05-10T10:41:49.709Z,100336.72
2023-05-10T10:44:31.974Z,100343.63
2023-05-10T10:47:19.502Z,100329.88
2023-05-10T10:49:52.774Z,100331.66
2023-05-10T10:52:28.726Z,100330.34
2023-05-10T10:55:02.447Z,100324.06
2023-05-10T10:57:32.174Z,100329.22
2023-05-10T11:00:19.092Z,100335.63
2023-05-10T11:02:47.199Z,100335.44
2023-05-10T11:05:43.061Z,100328.94
2023-05-10T11:08:36.940Z,100338.91
2023-05-10T11:11:10.396Z,100344.25
2023-05-10T11:13:51.299Z,100347.38
2023-05-10T11:16:21.505Z,100346.63
2023-05-10T11:19:07.771Z,100354.00
2023-05-10T11:21:44.867Z,100350.50
2023-05-10T11:24:19.893Z,100352.16
2023-05-10T11:26:46.864Z,100354.31
2023-05-10T11:29:14.774Z,100352.81
2023-05-10T11:31:46.295Z,100349.56
2023-05-10T11:34:23.504Z,100355.09
2023-05-10T11:36:56.291Z,100362.47
2023-05-10T11:39:27.733Z,100353.75
2023-05-10T11:41:55.441Z,100359.69
2023-05-10T11:44:22.174Z,100355.78
2023-05-10T11:46:50.053Z,100360.59
2023-05-10T11:49:16.783Z,100365.03
2023-05-10T11:51:44.556Z,100367.88
2023-05-10T11:54:12.218Z,100368.28
2023-05-10T11:56:42.001Z,100351.66
2023-05-10T11:59:09.316Z,100370.22
2023-05-10T12:01:37.580Z,100374.97
2023-05-10T12:04:04.600Z,100380.53
2023-05-10T12:06:38.128Z,100376.00
2023-05-10T12:09:11.411Z,100373.47
2023-05-10T12:11:43.511Z,100376.09
2023-05-10T12:14:11.650Z,100381.91
2023-05-10T12:16:38.262Z,100373.88
2023-05-10T12:19:06.457Z,100376.50
2023-05-10T12:21:34.287Z,100376.94
2023-05-10T12:24:03.929Z,100369.38
2023-05-10T12:26:30.969Z,100374.63
2023-05-10T12:29:14.747Z,100376.91
2023-05-10T12:32:00.002Z,100378.81
2023-05-10T12:34:39.504Z,100375.91
2023-05-10T12:37:06.266Z,100388.72
2023-05-10T12:39:43.872Z,100392.16
2023-05-10T12:42:11.521Z,100403.44
2023-05-10T12:44:38.165Z,100406.53
2023-05-10T12:47:04.893Z,100411.22
2023-05-10T12:49:31.576Z,100423.97
2023-05-10T12:51:58.146Z,100431.25
2023-05-10T12:54:25.095Z,100437.56
2023-05-10T12:56:51.798Z,100427.47
2023-05-10T12:59:19.688Z,100426.72
2023-05-10T13:01:46.492Z,100434.59
2023-05-10T13:04:13.260Z,100445.69
2023-05-10T13:06:39.938Z,100448.13
2023-05-10T13:09:06.610Z,100442.66
2023-05-10T13:11:33.657Z,100442.94
2023-05-10T13:14:06.987Z,100442.81
2023-05-10T13:16:34.020Z,100432.66
2023-05-10T13:19:01.464Z,100431.25
2023-05-10T13:21:28.821Z,100433.75
2023-05-10T13:23:55.462Z,100430.19
2023-05-10T13:26:22.474Z,100438.56
2023-05-10T13:28:49.834Z,100430.59
2023-05-10T13:31:16.721Z,100428.38
2023-05-10T13:33:43.431Z,100432.38
2023-05-10T13:36:10.111Z,100437.94
2023-05-10T13:38:37.094Z,100440.91
2023-05-10T13:41:04.178Z,100441.75
2023-05-10T13:43:30.927Z,100438.13
2023-05-10T13:45:57.810Z,100436.38
2023-05-10T13:48:24.459Z,100437.81
2023-05-10T13:50:51.089Z,100439.50
2023-05-10T13:53:17.860Z,100443.66
2023-05-10T13:55:44.517Z,100438.47
2023-05-10T13:58:11.664Z,100430.63
2023-05-10T14:00:38.369Z,100436.31
2023-05-10T14:03:06.339Z,100434.81
2023-05-10T14:05:33.072Z,100435.75
2023-05-10T14:07:59.626Z,100441.28
2023-05-10T14:10:26.448Z,100439.34
2023-05-10T14:12:53.102Z,100440.53
2023-05-10T14:15:20.053Z,100442.50
2023-05-10T14:17:46.814Z,100443.75
2023-05-10T14:20:14.363Z,100440.16
2023-05-10T14:22:41.462Z,100443.56
2023-05-10T14:25:08.769Z,100448.47
2023-05-10T14:27:38.077Z,100434.88
2023-05-10T14:30:05.082Z,100433.75
2023-05-10T14:32:33.042Z,100430.56
2023-05-10T14:35:00.537Z,100437.34
2023-05-10T14:37:32.266Z,100435.88
2023-05-10T14:39:59.171Z,100427.75
2023-05-10T14:42:25.743Z,100424.19
2023-05-10T14:44:52.406Z,100423.16
2023-05-10T14:47:19.045Z,100416.91
2023-05-10T14:49:45.687Z,100410.16
2023-05-10T14:52:13.251Z,100416.19
2023-05-10T14:54:40.157Z,100420.59
2023-05-10T14:57:07.481Z,100420.78
2023-05-10T14:59:34.065Z,100425.72
2023-05-10T15:02:01.045Z,100432.69
2023-05-10T15:04:28.511Z,100436.47
2023-05-10T15:07:02.293Z,100441.88
2023-05-10T15:09:28.936Z,100456.19
2023-05-10T15:11:56.142Z,100458.97
2023-05-10T15:14:23.574Z,100467.25
2023-05-10T15:16:51.815Z,100464.19
2023-05-10T15:19:18.429Z,100459.47
2023-05-10T15:21:49.094Z,100476.44
2023-05-10T15:24:27.694Z,100485.84
2023-05-10T15:26:54.912Z,100474.44
2023-05-10T15:29:21.822Z,100485.84
2023-05-10T15:31:49.039Z,100481.84
2023-05-10T15:34:19.955Z,100477.63
2023-05-10T15:36:46.741Z,100473.94
2023-05-10T15:39:13.627Z,100470.53
2023-05-10T15:41:40.322Z,100476.47
2023-05-10T15:44:07.161Z,100479.00
2023-05-10T15:46:38.673Z,100476.19
2023-05-10T15:49:06.811Z,100471.66
2023-05-10T15:51:36.802Z,100479.38
2023-05-10T15:54:07.731Z,100481.94
2023-05-10T15:56:35.201Z,100486.16
2023-05-10T15:59:02.078Z,100482.44
2023-05-10T16:01:29.109Z,100483.09
2023-05-10T16:03:55.869Z,100494.03
2023-05-10T16:06:22.485Z,100492.97
2023-05-10T16:08:49.096Z,100490.09
2023-05-10T16:11:16.034Z,100488.34
2023-05-10T16:13:42.647Z,100488.84
2023-05-10T16:16:09.530Z,100491.44
2023-05-10T16:18:36.297Z,100485.69
2023-05-10T16:21:03.404Z,100504.50
2023-05-10T16:23:30.602Z,100502.00
2023-05-10T16:25:57.219Z,100500.22
2023-05-10T16:28:23.879Z,100502.91
2023-05-10T16:30:51.617Z,100508.84
2023-05-10T16:33:19.714Z,100504.31
2023-05-10T16:35:46.388Z,100511.41
2023-05-10T16:38:13.362Z,100509.50
2023-05-10T16:40:39.987Z,100517.44
2023-05-10T16:43:06.647Z,100521.09
2023-05-10T16:45:33.288Z,100515.06
2023-05-10T16:48:00.090Z,100518.88
2023-05-10T16:50:26.745Z,100526.06
2023-05-10T16:52:53.412Z,100525.41
2023-05-10T16:55:20.682Z,100530.03
2023-05-10T16:57:47.310Z,100533.44
2023-05-10T17:00:17.185Z,100526.53
2023-05-10T17:02:43.859Z,100527.31
2023-05-10T17:05:13.029Z,100529.53
2023-05-10T17:07:39.655Z,100523.25
2023-05-10T17:10:07.125Z,100520.72
2023-05-10T17:12:34.156Z,100520.59
2023-05-10T17:15:00.762Z,100532.88
2023-05-10T17:17:27.417Z,100534.94
2023-05-10T17:19:54.141Z,100542.09
2023-05-10T17:22:22.268Z,100545.53
2023-05-10T17:24:48.879Z,100549.88
2023-05-10T17:27:15.662Z,100549.91
2023-05-10T17:29:42.899Z,100542.09
2023-05-10T17:32:09.548Z,100549.19
2023-05-10T17:34:37.326Z,100551.75
2023-05-10T17:37:05.058Z,100550.06
2023-05-10T17:39:31.727Z,100554.53
2023-05-10T17:41:58.389Z,100559.06
2023-05-10T17:44:25.958Z,100554.78
2023-05-10T17:46:52.508Z,100548.75
2023-05-10T17:49:19.109Z,100561.16
2023-05-10T17:51:48.107Z,100562.84
2023-05-10T17:54:16.911Z,100562.81
2023-05-10T17:56:43.584Z,100567.56
2023-05-10T17:59:10.281Z,100565.03
2023-05-10T18:01:36.980Z,100577.44
2023-05-10T18:04:04.648Z,100575.03
2023-05-10T18:06:32.346Z,100570.53
2023-05-10T18:08:58.987Z,100573.06
2023-05-10T18:11:26.260Z,100582.66
2023-05-10T18:13:52.972Z,100580.31
2023-05-10T18:16:19.624Z,100585.59
2023-05-10T18:18:46.351Z,100586.38
2023-05-10T18:21:13.598Z,100593.47
2023-05-10T18:23:40.535Z,100596.00
2023-05-10T18:26:08.399Z,100609.19
2023-05-10T18:28:43.265Z,100617.97
2023-05-10T18:31:14.862Z,100619.91
2023-05-10T18:33:41.545Z,100620.00
2023-05-10T18:36:08.867Z,100619.91
2023-05-10T18:38:35.508Z,100618.22
2023-05-10T18:41:02.143Z,100613.75
2023-05-10T18:43:28.883Z,100619.72
2023-05-10T18:45:55.518Z,100628.53
2023-05-10T18:48:22.096Z,100629.41
2023-05-10T18:50:48.724Z,100626.78
2023-05-10T18:53:15.451Z,100631.16
2023-05-10T18:55:42.418Z,100623.28
2023-05-10T18:58:09.167Z,100629.47
2023-05-10T19:00:35.969Z,100637.34
2023-05-10T19:03:02.795Z,100633.84
2023-05-10T19:05:31.562Z,100632.09
2023-05-10T19:07:58.158Z,100627.75
2023-05-10T19:10:25.909Z,100627.75
2023-05-10T19:12:52.681Z,100629.50
2023-05-10T19:15:20.943Z,100628.66
2023-05-10T19:17:50.295Z,100635.59
2023-05-10T19:20:17.708Z,100641.72
2023-05-10T19:23:02.272Z,100641.75
2023-05-10T19:25:34.290Z,100636.50
2023-05-10T19:28:00.928Z,100642.63
2023-05-10T19:30:30.511Z,100638.25
2023-05-10T19:32:57.332Z,100645.19
2023-05-10T19:35:24.077Z,100642.56
2023-05-10T19:37:51.908Z,100645.28
2023-05-10T19:40:18.780Z,100645.34
2023-05-10T19:42:45.342Z,100645.34
2023-05-10T19:45:12.331Z,100643.53
2023-05-10T19:47:39.030Z,100644.34
2023-05-10T19:50:09.107Z,100645.19
2023-05-10T19:52:36.515Z,100638.25
2023-05-10T19:55:04.430Z,100644.41
2023-05-10T19:57:30.980Z,100641.78
2023-05-10T19:59:57.594Z,100647.84
2023-05-10T20:02:24.239Z,100644.38
2023-05-10T20:04:51.268Z,100637.44
2023-05-10T20:07:17.875Z,100645.28
2023-05-10T20:09:44.567Z,100643.53
2023-05-10T20:12:11.156Z,100642.66
2023-05-10T20:14:37.871Z,100647.03
2023-05-10T20:17:04.773Z,100642.66
2023-05-10T20:19:31.688Z,100643.53
2023-05-10T20:21:58.871Z,100642.59
2023-05-10T20:24:25.494Z,100639.13
2023-05-10T20:26:52.043Z,100648.78
2023-05-10T20:29:22.126Z,100648.84
2023-05-10T20:31:48.856Z,100650.59
2023-05-10T20:34:15.519Z,100653.19
2023-05-10T20:36:42.172Z,100657.56
2023-05-10T20:39:09.451Z,100655.03
2023-05-10T20:41:36.152Z,100660.25
2023-05-10T20:44:02.782Z,100664.63
2023-05-10T20:46:30.311Z,100666.38
2023-05-10T20:48:57.377Z,100661.09
2023-05-10T20:51:24.197Z,100661.97
2023-05-10T20:53:50.797Z,100663.72
2023-05-10T20:56:18.710Z,100673.31
2023-05-10T20:58:45.331Z,100675.09
2023-05-10T21:01:11.998Z,100675.09
2023-05-10T21:03:38.573Z,100673.34
2023-05-10T21:06:05.263Z,100674.22
2023-05-10T21:08:31.800Z,100680.34
2023-05-10T21:10:59.451Z,100670.75
2023-05-10T21:13:26.072Z,100678.59
2023-05-10T21:15:53.204Z,100674.25
2023-05-10T21:18:19.856Z,100675.09
2023-05-10T21:20:46.562Z,100678.59
2023-05-10T21:23:13.409Z,100682.94
2023-05-10T21:25:40.091Z,100672.47
2023-05-10T21:28:06.819Z,100683.78
2023-05-10T21:30:33.866Z,100683.81
2023-05-10T21:33:01.672Z,100689.03
2023-05-10T21:35:29.821Z,100691.69
2023-05-10T21:37:57.408Z,100683.78
2023-05-10T21:40:24.243Z,100685.56
2023-05-10T21:42:51.061Z,100681.16
2023-05-10T21:45:19.218Z,100681.16
2023-05-10T21:47:45.957Z,100682.94
2023-05-10T21:50:13.060Z,100686.44
2023-05-10T21:52:39.690Z,100683.81
2023-05-10T21:55:08.410Z,100689.09
2023-05-10T21:57:35.031Z,100685.56
2023-05-10T22:00:01.724Z,100685.63
2023-05-10T22:02:31.204Z,100691.72
2023-05-10T22:04:58.093Z,100694.28
2023-05-10T22:07:24.694Z,100690.81
2023-05-10T22:09:58.561Z,100689.97
2023-05-10T22:12:25.891Z,100686.47
2023-05-10T22:15:06.425Z,100689.94
2023-05-10T22:17:37.665Z,100689.94
2023-05-10T22:20:05.539Z,100696.94
2023-05-10T22:22:32.080Z,100693.44
2023-05-10T22:24:58.976Z,100692.53
2023-05-10T22:27:25.637Z,100696.88
2023-05-10T22:29:52.894Z,100695.16
2023-05-10T22:32:19.581Z,100691.69
2023-05-10T22:34:46.231Z,100699.53
2023-05-10T22:37:15.320Z,100696.94
2023-05-10T22:39:41.912Z,100696.06
2023-05-10T22:42:08.465Z,100691.72
2023-05-10T22:44:35.075Z,100696.03
2023-05-10T22:47:01.813Z,100693.44
2023-05-10T22:49:28.576Z,100701.28
2023-05-10T22:51:55.160Z,100700.38
2023-05-10T22:54:21.737Z,100698.63
2023-05-10T22:56:48.401Z,100702.16
2023-05-10T22:59:15.018Z,100704.78
2023-05-10T23:01:41.820Z,100707.41
2023-05-10T23:04:08.493Z,100707.38
2023-05-10T23:06:35.112Z,100704.75
2023-05-10T23:09:01.706Z,100705.66
2023-05-10T23:11:28.369Z,100709.13
2023-05-10T23:13:55.161Z,100710.88
2023-05-10T23:16:21.867Z,100713.53
2023-05-10T23:18:48.684Z,100712.66
2023-05-10T23:21:15.622Z,100708.28
2023-05-10T23:23:42.313Z,100710.91
2023-05-10T23:26:09.406Z,100711.75
2023-05-10T23:28:35.948Z,100706.53
2023-05-10T23:31:02.613Z,100710.91
2023-05-10T23:33:29.238Z,100704.78
2023-05-10T23:35:56.122Z,100705.66
2023-05-10T23:38:22.708Z,100702.19
2023-05-10T23:40:50.427Z,100696.94
2023-05-10T23:43:19.682Z,100704.78
2023-05-10T23:45:54.740Z,100692.56
2023-05-10T23:48:21.535Z,100701.28
2023-05-10T23:50:48.136Z,100695.22
2023-05-10T23:53:14.867Z,100694.34
2023-05-10T23:55:41.461Z,100693.47
2023-05-10T23:58:08.150Z,100690.88
